Página principal
METAR-TAF:

METAR-TAF

Aeroportos :

Aeroporto Internacional do Kuwait

Kuwait, Kuwait

latitude: 29-13N, longitude: 047-59E, altura: 55 m

Observação actual do tempo

O boletim foi feito há 6 minutos, às 02:00 UTC
Vento 13 kt de nor-noroeste
Temperatura 36°C
Humidade 19%
Pressão 1000 hPa
Visibilidade 10 km ou mais
sem nuvens abaixo de 1500 metros e sem cumulonimbus

METAR: OKBK 220200Z 33013KT CAVOK 36/09 Q1000 NOSIG

Hora: 05:06 (02:06 UTC)

Previsão

O boletim foi feito há 3 horas e 21 minutos, às 22:45 UTC
Previsão válida de 22 às 00 UTC a 23 às 06 UTC
Vento 12 kt de norte com rajadas de 22 kt
Visibilidade: 7000 m
Céu limpo
Temporariamente
de 22 às 06 UTC a 22 às 15 UTC
Visibilidade: 4000 m
Poeira levantada pelo vento

TAF: OKBK 212245Z 2200/2306 35012G22KT 7000 SKC TEMPO 2206/2215 4000 BLDU

Observações e previsões do tempo de mais de 4000 aeroportos (mensagens METAR e TAF).

As estações disponíveis são os pontos amarelos e vermelhos sobre o mapa.

Mova o rato sobre o mapa para ver o nome da estação.

Depois clique no ponto para visualizar as observações e previsões meteorológicas.

Para alterar o mapa : clique nos botões verdes com uma cruz preta para aumentar o zoom; no botão verde com uma pitada de zoom; ou nas setas verdes para mapas adjacentes.


METAR-TAF: